CheckWX is a tool to help pilots better visualize weather data.  It is not intended as a substitute for an official pre-flight weather briefing.

20:41:00 UTC

KMLC METAR
Mc Alester Regional Airport
Mc Alester, Oklahoma, USA
Current

48 mins ago

KMLC 041953Z AUTO 19010G17KT 10SM SCT040 BKN048 33/24 A2983 RMK AO2 SLP091 T03280239
Observed
Jun-4 @ 19:53 UTC
Wind
  • 190° at 10 KTS
  • Gusting to 17 KTS
Visibility
Flight Rules
VFR
Cloud Levels
  • Scattered at 4,000' AGL
  • Broken at 4,800' AGL
Temperature
33°C / 91°F
Dewpoint
24°C / 75°F
Humidity
59%
Altimeter
29.83" Hg
Pressure
1010.12 hPa
Previous

2 hours ago

KMLC 041853Z AUTO 18008G15KT 140V210 10SM SCT040 33/23 A2985 RMK AO2 SLP098 T03280228
Observed
Jun-4 @ 18:53 UTC
Wind
  • 180° at 8 KTS
  • Gusting to 15 KTS
Visibility
Flight Rules
VFR
Cloud Levels
  • Scattered at 4,000' AGL
Temperature
33°C / 91°F
Dewpoint
23°C / 73°F
Humidity
56%
Altimeter
29.85" Hg
Pressure
1010.82 hPa
Previous

3 hours ago

KMLC 041753Z AUTO VRB06KT 10SM CLR 32/23 A2986 RMK AO2 SLP102 T03220233 10328 20244 50000
Observed
Jun-4 @ 17:53 UTC
Wind
  • Variable at 6 KTS
Visibility
Flight Rules
VFR
Cloud Levels
  • Clear skies
Temperature
32°C / 90°F
Dewpoint
23°C / 73°F
Humidity
59%
Altimeter
29.86" Hg
Pressure
1011.22 hPa